Time;durP1;ratioP1;P1;durP2;ratioP2;P2;SDS_P1;SDS_P2;PMS_P1;PMS_P2;Temp;Humidity;BMP_temperature;BMP_pressure;BME280_temperature;BME280_humidity;BME280_pressure;Samples;Min_cycle;Max_cycle;Signal;HPM_P1;HPM_P2
2023/04/23 00:00:18;;;;;;;51.87;34.90;;;;;;;;;;4948820;28;20470;-81
2023/04/23 00:02:45;;;;;;;52.43;31.77;;;;;;;;;;4949164;28;20452;-81
2023/04/23 00:05:12;;;;;;;51.03;33.73;;;;;;;;;;4950322;29;20517;-80
2023/04/23 00:07:38;;;;;;;46.97;31.27;;;;;;;;;;4948161;29;21002;-81
2023/04/23 00:10:07;;;;;;;38.03;26.80;;;;;;;;;;4950285;28;21008;-80
2023/04/23 00:12:34;;;;;;;42.63;28.67;;;;;;;;;;4947138;28;20986;-80
2023/04/23 00:15:01;;;;;;;39.03;26.40;;;;;;;;;;4950096;28;20469;-80
2023/04/23 00:17:27;;;;;;;39.03;26.17;;;;;;;;;;4947541;28;20441;-80
2023/04/23 00:19:52;;;;;;;36.57;27.27;;;;;;;;;;4951668;29;20512;-81
2023/04/23 00:22:22;;;;;;;39.90;26.53;;;;;;;;;;4946897;28;20450;-81
2023/04/23 00:24:48;;;;;;;36.73;25.03;;;;;;;;;;4950524;28;20450;-80
2023/04/23 00:27:14;;;;;;;34.90;25.90;;;;;;;;;;4947201;28;20438;-80
2023/04/23 00:29:40;;;;;;;33.23;24.90;;;;;;;;;;4951454;28;20502;-81
2023/04/23 00:32:07;;;;;;;34.93;25.13;;;;;;;;;;4946652;29;20941;-80
2023/04/23 00:34:33;;;;;;;32.97;25.10;;;;;;;;;;4950976;28;20485;-81
2023/04/23 00:36:59;;;;;;;33.00;23.93;;;;;;;;;;4949811;28;20454;-81
2023/04/23 00:39:25;;;;;;;29.97;24.40;;;;;;;;;;4951025;28;20456;-82
2023/04/23 00:41:51;;;;;;;31.67;24.57;;;;;;;;;;4944450;28;20819;-80
2023/04/23 00:44:17;;;;;;;30.37;24.30;;;;;;;;;;4967679;28;20433;-80
2023/04/23 00:46:43;;;;;;;33.40;25.37;;;;;;;;;;4965600;28;20458;-81
2023/04/23 00:49:09;;;;;;;30.77;23.83;;;;;;;;;;4955379;29;20434;-81
2023/04/23 00:51:35;;;;;;;36.13;25.30;;;;;;;;;;4953244;28;20442;-80
2023/04/23 00:54:02;;;;;;;38.37;27.10;;;;;;;;;;4953195;28;21028;-82
2023/04/23 00:56:28;;;;;;;36.60;27.10;;;;;;;;;;4949867;28;20449;-80
2023/04/23 00:58:54;;;;;;;30.70;23.03;;;;;;;;;;4953307;29;21013;-80
2023/04/23 01:01:21;;;;;;;35.03;24.30;;;;;;;;;;4950376;28;20550;-82
2023/04/23 01:03:48;;;;;;;31.63;23.60;;;;;;;;;;4956759;28;20443;-81
2023/04/23 01:06:15;;;;;;;36.57;25.00;;;;;;;;;;4948874;28;20449;-81
2023/04/23 01:08:46;;;;;;;35.13;23.60;;;;;;;;;;4942286;29;20466;-81
2023/04/23 01:11:13;;;;;;;29.60;22.27;;;;;;;;;;4954751;28;20448;-81
2023/04/23 01:13:39;;;;;;;35.33;23.43;;;;;;;;;;4957325;28;21028;-82
2023/04/23 01:16:05;;;;;;;27.93;22.97;;;;;;;;;;4955290;28;20803;-82
2023/04/23 01:18:31;;;;;;;34.87;25.93;;;;;;;;;;4956943;28;20441;-80
2023/04/23 01:20:57;;;;;;;34.57;24.23;;;;;;;;;;4964577;28;20765;-80
2023/04/23 01:23:23;;;;;;;33.87;23.27;;;;;;;;;;4950386;28;20434;-80
2023/04/23 01:25:49;;;;;;;30.40;23.27;;;;;;;;;;4966803;28;20922;-80
2023/04/23 01:28:15;;;;;;;34.87;25.57;;;;;;;;;;4949472;29;20430;-81
2023/04/23 01:30:43;;;;;;;31.77;23.07;;;;;;;;;;4945337;28;20446;-82
2023/04/23 01:33:09;;;;;;;28.80;23.13;;;;;;;;;;4949173;28;20441;-82
2023/04/23 01:35:36;;;;;;;30.03;22.73;;;;;;;;;;4946230;29;21061;-81
2023/04/23 01:38:06;;;;;;;32.00;22.87;;;;;;;;;;4952213;28;20462;-81
2023/04/23 01:40:32;;;;;;;30.90;24.07;;;;;;;;;;4945197;28;20445;-81
2023/04/23 01:42:58;;;;;;;29.87;24.20;;;;;;;;;;4949239;29;20623;-81
2023/04/23 01:45:24;;;;;;;33.17;25.23;;;;;;;;;;4944635;28;20449;-80
2023/04/23 01:47:51;;;;;;;34.80;24.20;;;;;;;;;;4948653;28;20438;-80
2023/04/23 01:50:17;;;;;;;34.87;24.57;;;;;;;;;;4944489;28;20448;-81
2023/04/23 01:52:44;;;;;;;36.17;25.70;;;;;;;;;;4930407;29;20930;-81
2023/04/23 01:55:10;;;;;;;34.70;24.17;;;0.00;0.00;;;;;;4944367;28;20568;-80
2023/04/23 01:57:36;;;;;;;34.03;24.93;;;;;;;;;;4948161;28;20523;-82
2023/04/23 02:00:07;;;;;;;38.20;25.73;;;;;;;;;;4944039;28;20446;-81
2023/04/23 02:02:33;;;;;;;39.47;25.17;;;;;;;;;;4947897;28;20430;-80
2023/04/23 02:05:03;;;;;;;32.03;24.57;;;;;;;;;;4944795;28;20449;-80
2023/04/23 02:07:29;;;;;;;36.80;26.23;;;;;;;;;;4948221;29;20430;-81
2023/04/23 02:09:56;;;;;;;33.50;25.40;;;;;;;;;;4950001;28;20434;-81
2023/04/23 02:12:21;;;;;;;34.70;24.93;;;;;;;;;;4949760;28;20457;-80
2023/04/23 02:14:47;;;;;;;36.60;29.33;;;;;;;;;;4944947;28;20473;-80
2023/04/23 02:17:14;;;;;;;35.27;26.10;;;;;;;;;;4948392;28;20430;-81
2023/04/23 02:19:40;;;;;;;39.00;28.67;;;;;;;;;;4943655;28;21175;-80
2023/04/23 02:22:06;;;;;;;34.00;24.50;;;0.00;0.00;;;;;;4941294;29;20913;-80
2023/04/23 02:24:32;;;;;;;43.13;28.63;;;;;;;;;;4944195;28;20465;-79
2023/04/23 02:26:58;;;;;;;36.67;23.77;;;;;;;;;;4948776;28;20454;-81
2023/04/23 02:29:24;;;;;;;36.47;24.40;;;;;;;;;;4948658;28;20448;-81
2023/04/23 02:31:51;;;;;;;35.43;25.63;;;;;;;;;;4945750;28;20450;-81
2023/04/23 02:34:17;;;;;;;41.57;26.43;;;;;;;;;;4949188;28;20480;-81
2023/04/23 02:36:43;;;;;;;37.27;26.10;;;;;;;;;;4945858;28;20470;-82
2023/04/23 02:39:09;;;;;;;34.87;26.40;;;;;;;;;;4949601;28;20434;-81
2023/04/23 02:41:35;;;;;;;40.57;27.23;;;;;;;;;;4945627;28;20992;-80
2023/04/23 02:44:01;;;;;;;40.37;27.87;;;;;;;;;;4948230;28;20441;-81
2023/04/23 02:46:27;;;;;;;40.57;26.87;;;;;;;;;;4947629;28;20528;-82
2023/04/23 02:48:56;;;;;;;44.57;28.30;;;;;;;;;;4940659;29;20466;-80
2023/04/23 02:51:22;;;;;;;44.67;26.93;;;;;;;;;;4968342;28;20484;-81
2023/04/23 02:53:54;;;;;;;44.27;28.10;;;;;;;;;;4974068;28;20565;-82
2023/04/23 02:56:20;;;;;;;43.67;29.53;;;;;;;;;;4964683;28;20450;-80
2023/04/23 02:58:46;;;;;;;46.43;27.87;;;;;;;;;;4962822;28;20430;-81
2023/04/23 03:01:11;;;;;;;40.60;26.23;;;0.00;0.00;;;;;;4954972;28;20450;-80
2023/04/23 03:03:37;;;;;;;49.63;31.50;;;;;;;;;;4954220;28;20788;-80
2023/04/23 03:06:03;;;;;;;47.07;29.00;;;;;;;;;;4926460;29;20253;-81
2023/04/23 03:08:29;;;;;;;51.13;32.40;;;;;;;;;;4947309;29;20466;-81
2023/04/23 03:10:55;;;;;;;45.73;27.47;;;;;;;;;;4944102;28;20470;-81
2023/04/23 03:13:21;;;;;;;39.47;26.90;;;;;;;;;;4946293;29;20470;-80
2023/04/23 03:15:48;;;;;;;45.10;28.40;;;;;;;;;;4943972;28;20445;-80
2023/04/23 03:18:14;;;;;;;47.73;26.90;;;;;;;;;;4930290;29;20442;-81
2023/04/23 03:20:40;;;;;;;42.50;28.77;;;;;;;;;;4943359;28;20700;-80
2023/04/23 03:23:06;;;;;;;47.40;28.20;;;;;;;;;;4943085;29;20497;-81
2023/04/23 03:25:32;;;;;;;48.10;30.13;;;;;;;;;;4943122;28;20465;-80
2023/04/23 03:27:59;;;;;;;42.93;27.60;;;;;;;;;;4946757;28;20474;-81
2023/04/23 03:30:25;;;;;;;39.80;26.30;;;0.00;0.00;;;;;;4943428;28;20450;-79
2023/04/23 03:32:51;;;;;;;39.83;27.40;;;;;;;;;;4947257;28;20569;-81
2023/04/23 03:35:17;;;;;;;35.40;24.87;;;;;;;;;;4944705;28;20787;-80
2023/04/23 03:37:43;;;;;;;37.77;25.37;;;;;;;;;;4946902;28;20703;-80
2023/04/23 03:40:09;;;;;;;37.40;25.00;;;;;;;;;;4943437;28;20462;-80
2023/04/23 03:42:36;;;;;;;42.23;27.87;;;;;;;;;;4949393;28;20468;-80
2023/04/23 03:45:02;;;;;;;41.77;25.20;;;;;;;;;;4944131;28;20462;-81
2023/04/23 03:47:28;;;;;;;42.30;25.27;;;;;;;;;;4947581;28;20426;-80
2023/04/23 03:49:54;;;;;;;40.47;27.47;;;;;;;;;;4943746;29;20449;-81
2023/04/23 03:52:20;;;;;;;39.37;25.50;;;;;;;;;;4947050;28;20461;-81
2023/04/23 03:54:46;;;;;;;45.13;36.53;;;;;;;;;;4942977;28;20521;-81
2023/04/23 03:57:12;;;;;;;33.63;23.50;;;;;;;;;;4947032;28;20894;-81
2023/04/23 03:59:38;;;;;;;38.03;28.90;;;0.00;0.00;;;;;;4943794;28;20680;-81
2023/04/23 04:02:05;;;;;;;40.30;26.87;;;;;;;;;;4946603;29;20437;-81
2023/04/23 04:04:32;;;;;;;45.93;28.97;;;;;;;;;;4944465;28;20438;-81
2023/04/23 04:07:01;;;;;;;34.20;25.23;;;;;;;;;;4947719;29;20422;-81
2023/04/23 04:09:28;;;;;;;44.53;29.67;;;;;;;;;;4947590;28;20434;-81
2023/04/23 04:11:54;;;;;;;45.43;29.10;;;;;;;;;;4947285;29;20435;-82
2023/04/23 04:14:20;;;;;;;46.60;27.93;;;;;;;;;;4947055;28;20814;-81
2023/04/23 04:16:46;;;;;;;46.93;27.83;;;;;;;;;;4943718;28;20454;-81
2023/04/23 04:19:12;;;;;;;47.50;29.70;;;;;;;;;;4946145;28;20446;-80
2023/04/23 04:21:38;;;;;;;41.00;27.97;;;;;;;;;;4943505;28;20457;-81
2023/04/23 04:24:04;;;;;;;51.37;29.70;;;;;;;;;;4942746;28;20894;-82
2023/04/23 04:26:31;;;;;;;44.50;27.23;;;;;;;;;;4945979;28;20446;-80
2023/04/23 04:28:58;;;;;;;43.80;25.57;;;;;;;;;;4949944;29;20537;-81
2023/04/23 04:31:24;;;;;;;48.50;28.60;;;;;;;;;;4946288;28;20438;-82
2023/04/23 04:33:50;;;;;;;49.53;28.40;;;;;;;;;;4949690;28;20470;-81
2023/04/23 04:36:17;;;;;;;45.17;27.27;;;;;;;;;;4945438;28;20512;-81
2023/04/23 04:38:43;;;;;;;45.97;27.10;;;;;;;;;;4949523;28;20519;-80
2023/04/23 04:41:10;;;;;;;49.83;26.97;;;;;;;;;;4946423;28;20457;-80
2023/04/23 04:43:36;;;;;;;48.87;25.77;;;;;;;;;;4949269;29;21178;-81
2023/04/23 04:46:02;;;;;;;36.90;24.93;;;;;;;;;;4946067;28;20449;-79
2023/04/23 04:48:28;;;;;;;38.17;23.93;;;;;;;;;;4935886;28;20985;-80
2023/04/23 04:50:54;;;;;;;31.10;22.40;;;;;;;;;;4951232;28;20442;-79
2023/04/23 04:53:20;;;;;;;33.07;22.20;;;;;;;;;;4947960;28;20438;-80
2023/04/23 04:55:46;;;;;;;32.13;23.70;;;;;;;;;;4946443;29;20937;-82
2023/04/23 04:58:12;;;;;;;34.67;29.03;;;;;;;;;;4966904;28;20465;-81
2023/04/23 05:00:38;;;;;;;25.40;20.57;;;;;;;;;;4970283;28;20821;-82
2023/04/23 05:03:05;;;;;;;35.23;31.67;;;;;;;;;;4949784;29;20554;-81
2023/04/23 05:05:32;;;;;;;22.60;18.43;;;;;;;;;;4950968;28;20542;-83
2023/04/23 05:08:00;;;;;;;25.07;20.80;;;;;;;;;;4946590;28;20718;-80
2023/04/23 05:10:27;;;;;;;22.30;17.90;;;;;;;;;;4944862;29;20465;-83
2023/04/23 05:12:53;;;;;;;22.73;17.70;;;;;;;;;;4949787;28;20437;-80
2023/04/23 05:15:21;;;;;;;19.43;17.33;;;;;;;;;;4945182;28;20470;-81
2023/04/23 05:17:47;;;;;;;21.10;18.90;;;;;;;;;;4949026;29;20529;-82
2023/04/23 05:20:13;;;;;;;16.97;15.20;;;;;;;;;;4947582;28;20523;-81
2023/04/23 05:22:43;;;;;;;17.80;15.90;;;;;;;;;;4947371;28;20473;-81
2023/04/23 05:25:10;;;;;;;17.77;15.83;;;;;;;;;;4947377;28;20466;-81
2023/04/23 05:27:36;;;;;;;19.23;16.97;;;;;;;;;;4948630;28;20460;-81
2023/04/23 05:30:03;;;;;;;17.53;15.83;;;;;;;;;;4945602;28;20954;-81
2023/04/23 05:32:29;;;;;;;17.50;15.80;;;;;;;;;;4948223;28;20480;-82
2023/04/23 05:34:56;;;;;;;18.33;15.77;;;;;;;;;;4946212;28;20478;-81
2023/04/23 05:37:22;;;;;;;23.80;21.53;;;;;;;;;;4943584;28;20474;-81
2023/04/23 05:39:48;;;;;;;15.10;13.67;;;;;;;;;;4941397;29;20493;-81
2023/04/23 05:42:14;;;;;;;14.20;12.73;;;;;;;;;;4947604;28;20445;-81
2023/04/23 05:44:40;;;;;;;14.73;13.20;;;;;;;;;;4939613;28;20577;-81
2023/04/23 05:47:07;;;;;;;16.10;14.50;;;;;;;;;;4948663;29;20516;-82
2023/04/23 05:49:34;;;;;;;22.10;20.07;;;;;;;;;;4945048;28;20446;-80
2023/04/23 05:52:01;;;;;;;15.07;13.47;;;;;;;;;;4948600;28;20996;-81
2023/04/23 05:54:27;;;;;;;17.30;15.67;;;;;;;;;;4944656;28;20505;-82
2023/04/23 05:56:53;;;;;;;15.13;12.67;;;;;;;;;;4949425;29;20436;-82
2023/04/23 05:59:19;;;;;;;14.33;11.93;;;;;;;;;;4948899;29;20526;-80
2023/04/23 06:01:46;;;;;;;14.13;12.67;;;;;;;;;;4953230;29;20425;-82
2023/04/23 06:04:12;;;;;;;14.00;12.53;;;;;;;;;;4952262;28;20525;-82
2023/04/23 06:06:38;;;;;;;14.80;13.30;;;;;;;;;;4946197;28;20442;-82
2023/04/23 06:09:05;;;;;;;13.30;12.00;;;;;;;;;;4949802;28;20492;-82
2023/04/23 06:11:31;;;;;;;13.20;11.80;;;;;;;;;;4946562;28;20529;-81
2023/04/23 06:13:58;;;;;;;13.47;12.27;;;;;;;;;;4949481;28;20470;-81
2023/04/23 06:16:24;;;;;;;11.90;10.80;;;;;;;;;;4945762;28;20446;-82
2023/04/23 06:18:50;;;;;;;12.30;11.20;;;;;;;;;;4949434;29;20545;-81
2023/04/23 06:21:16;;;;;;;12.40;11.20;;;;;;;;;;4946432;28;20820;-80
2023/04/23 06:23:42;;;;;;;11.80;10.80;;;;;;;;;;4950812;28;20446;-80
2023/04/23 06:26:08;;;;;;;11.60;10.60;;;;;;;;;;4955407;29;20476;-80
2023/04/23 06:28:34;;;;;;;13.40;11.70;;;;;;;;;;4950512;29;20767;-81
2023/04/23 06:31:01;;;;;;;11.53;10.57;;;;;;;;;;4931108;29;20458;-82
2023/04/23 06:33:27;;;;;;;11.83;10.73;;;;;;;;;;4951012;28;20510;-81
2023/04/23 06:35:53;;;;;;;12.97;11.70;;;;;;;;;;4943495;28;20489;-81
2023/04/23 06:38:21;;;;;;;13.10;11.90;;;;;;;;;;4930649;29;20446;-79
2023/04/23 06:40:47;;;;;;;10.67;9.80;;;;;;;;;;4945062;28;20926;-81
2023/04/23 06:43:13;;;;;;;10.90;9.97;;;;;;;;;;4937920;28;20461;-81
2023/04/23 06:45:40;;;;;;;10.33;9.63;;;;;;;;;;4950548;28;20751;-81
2023/04/23 06:48:06;;;;;;;11.67;10.57;;;;;;;;;;4942972;28;20434;-80
2023/04/23 06:50:32;;;;;;;11.30;9.47;;;;;;;;;;4948326;29;20544;-80
2023/04/23 06:52:58;;;;;;;11.07;10.27;;;;;;;;;;4939040;28;21140;-80
2023/04/23 06:55:25;;;;;;;11.30;10.30;;;;;;;;;;4941754;28;20565;-79
2023/04/23 06:57:52;;;;;;;10.73;10.03;;;;;;;;;;4943311;28;20442;-80
2023/04/23 07:00:18;;;;;;;10.50;9.60;;;;;;;;;;4930688;29;20820;-80
2023/04/23 07:02:45;;;;;;;10.70;10.00;;;;;;;;;;4927636;29;20983;-80
2023/04/23 07:05:11;;;;;;;10.03;9.33;;;;;;;;;;4943973;29;20430;-80
2023/04/23 07:07:37;;;;;;;10.20;9.40;;;;;;;;;;4964106;28;20470;-79
2023/04/23 07:10:04;;;;;;;10.30;9.47;;;;;;;;;;4956617;28;20409;-78
2023/04/23 07:12:30;;;;;;;10.27;9.40;;;;;;;;;;4948170;28;20571;-79
2023/04/23 07:14:56;;;;;;;14.73;13.20;;;;;;;;;;4955331;28;20995;-78
2023/04/23 07:17:22;;;;;;;8.50;7.93;;;;;;;;;;4946464;28;20434;-80
2023/04/23 07:19:49;;;;;;;9.83;9.03;;;;;;;;;;4947391;28;20426;-79
2023/04/23 07:22:15;;;;;;;10.17;9.37;;;;;;;;;;4924910;29;20442;-79
2023/04/23 07:24:41;;;;;;;9.00;8.20;;;;;;;;;;4954501;28;21128;-81
2023/04/23 07:27:07;;;;;;;24.43;22.73;;;;;;;;;;4943963;28;20841;-81
2023/04/23 07:29:33;;;;;;;11.27;10.37;;;;;;;;;;4947244;28;20437;-81
2023/04/23 07:31:59;;;;;;;27.50;25.07;;;;;;;;;;4924737;28;20441;-80
2023/04/23 07:34:25;;;;;;;8.97;8.43;;;;;;;;;;4942717;28;20474;-81
2023/04/23 07:36:51;;;;;;;15.67;14.10;;;;;;;;;;4944927;28;20465;-79
2023/04/23 07:39:17;;;;;;;9.10;8.40;;;;;;;;;;4945569;28;20513;-79
2023/04/23 07:41:43;;;;;;;10.40;9.47;;;;;;;;;;4944625;28;20525;-79
2023/04/23 07:44:09;;;;;;;11.30;10.27;;;;;;;;;;4942241;28;20471;-80
2023/04/23 07:46:36;;;;;;;9.60;9.00;;;;;;;;;;4946689;28;20512;-80
2023/04/23 07:49:02;;;;;;;10.10;9.50;;;;;;;;;;4941962;28;20953;-79
2023/04/23 07:51:28;;;;;;;9.50;8.90;;;;;;;;;;4948259;28;21040;-81
2023/04/23 07:53:55;;;;;;;12.40;11.30;;;;;;;;;;4943304;28;20485;-81
2023/04/23 07:56:21;;;;;;;9.23;8.70;;;;;;;;;;4948289;28;20434;-79
2023/04/23 07:58:48;;;;;;;9.13;8.47;;;;;;;;;;4944402;28;20461;-80
2023/04/23 08:01:14;;;;;;;8.70;8.17;;;;;;;;;;4949468;29;20723;-80
2023/04/23 08:03:40;;;;;;;10.17;9.43;;;;;;;;;;4948765;28;20492;-79
2023/04/23 08:06:06;;;;;;;10.17;9.57;;;;;;;;;;4943601;28;20469;-80
2023/04/23 08:08:32;;;;;;;8.10;7.60;;;;;;;;;;4949327;28;20434;-80
2023/04/23 08:10:58;;;;;;;15.80;14.40;;;;;;;;;;4948269;28;20929;-82
2023/04/23 08:13:24;;;;;;;7.43;7.13;;;;;;;;;;4951072;29;20480;-80
2023/04/23 08:15:50;;;;;;;12.30;11.47;;;;;;;;;;4947576;28;20829;-80
2023/04/23 08:18:17;;;;;;;7.97;7.43;;;;;;;;;;4953769;28;20456;-79
2023/04/23 08:20:43;;;;;;;7.97;7.60;;;;;;;;;;4953344;28;20469;-80
2023/04/23 08:23:09;;;;;;;6.60;6.30;;;;;;;;;;4951627;29;20410;-81
2023/04/23 08:25:35;;;;;;;8.10;7.60;;;;;;;;;;4943849;28;20466;-79
2023/04/23 08:28:01;;;;;;;6.80;6.40;;;;;;;;;;4949616;28;20442;-81
2023/04/23 08:30:27;;;;;;;7.17;6.80;;;;;;;;;;4951200;28;20529;-80
2023/04/23 08:32:53;;;;;;;7.10;6.70;;;;;;;;;;4950524;28;20537;-81
2023/04/23 08:35:19;;;;;;;8.03;7.53;;;;;;;;;;4946740;28;21140;-80
2023/04/23 08:37:45;;;;;;;7.30;7.00;;;;;;;;;;4949571;28;20946;-80
2023/04/23 08:40:12;;;;;;;6.93;6.63;;;;;;;;;;4947047;28;20458;-79
2023/04/23 08:42:50;;;;;;;9.57;8.47;;;;;;;;;;4952253;28;20566;-79
2023/04/23 08:45:16;;;;;;;12.53;11.40;;;;;;;;;;4949377;28;20469;-80
2023/04/23 08:47:42;;;;;;;7.50;7.00;;;;;;;;;;4948580;28;20446;-80
2023/04/23 08:50:11;;;;;;;8.40;7.83;;;;;;;;;;4955485;28;20449;-79
2023/04/23 08:52:38;;;;;;;8.27;7.87;;;;;;;;;;4949384;28;20452;-80
2023/04/23 08:55:09;;;;;;;8.30;7.60;;;;;;;;;;4945628;28;20474;-79
2023/04/23 08:57:35;;;;;;;6.80;6.50;;;;;;;;;;4949950;28;20430;-79
2023/04/23 09:00:04;;;;;;;19.67;18.20;;;;;;;;;;4932067;28;20445;-79
2023/04/23 09:02:30;;;;;;;7.90;7.40;;;;;;;;;;4944799;29;20433;-78
2023/04/23 09:04:57;;;;;;;8.53;7.83;;;;;;;;;;4950129;28;20442;-80
2023/04/23 09:07:23;;;;;;;6.50;6.10;;;;;;;;;;4951148;28;20418;-81
2023/04/23 09:09:49;;;;;;;7.00;6.40;;;;;;;;;;4944508;28;20421;-80
2023/04/23 09:12:15;;;;;;;4.93;4.70;;;;;;;;;;4944115;29;20409;-80
2023/04/23 09:14:41;;;;;;;6.80;6.30;;;;;;;;;;4956190;28;20466;-79
2023/04/23 09:17:07;;;;;;;5.03;4.73;;;;;;;;;;4969254;29;20435;-80
2023/04/23 09:19:33;;;;;;;5.23;4.97;;;;;;;;;;4955939;29;20453;-78
2023/04/23 09:22:02;;;;;;;5.90;5.70;;;;;;;;;;4948895;28;20418;-79
2023/04/23 09:24:29;;;;;;;5.93;5.60;;;;;;;;;;4948440;28;20442;-80
2023/04/23 09:26:55;;;;;;;6.70;6.50;;;;;;;;;;4948858;28;20441;-79
2023/04/23 09:29:22;;;;;;;6.10;5.80;;;;;;;;;;4948180;29;20441;-80
2023/04/23 09:31:50;;;;;;;7.10;6.67;;;;;;;;;;4948301;29;20704;-79
2023/04/23 09:34:17;;;;;;;6.83;6.53;;;;;;;;;;4948706;28;20489;-79
2023/04/23 09:36:44;;;;;;;5.20;5.03;;;;;;;;;;4947453;28;20493;-81
2023/04/23 09:39:13;;;;;;;8.03;7.63;;;;;;;;;;4947162;28;20542;-81
2023/04/23 09:41:39;;;;;;;6.00;5.70;;;;;;;;;;4948479;28;20453;-79
2023/04/23 09:44:07;;;;;;;8.87;8.27;;;;;;;;;;4946540;29;20453;-80
2023/04/23 09:46:37;;;;;;;5.63;5.47;;;;;;;;;;4947528;28;20430;-78
2023/04/23 09:49:06;;;;;;;7.37;7.00;;;;;;;;;;4947251;28;20868;-81
2023/04/23 09:51:32;;;;;;;5.20;4.90;;;;;;;;;;4950334;28;20438;-81
2023/04/23 09:54:01;;;;;;;5.70;5.50;;;;;;;;;;4953485;28;20462;-80
2023/04/23 09:56:33;;;;;;;5.80;5.60;;;;;;;;;;4947007;28;21133;-81
2023/04/23 09:59:00;;;;;;;6.90;6.57;;;;;;;;;;4953904;28;20438;-81
2023/04/23 10:01:29;;;;;;;5.17;5.00;;;;;;;;;;4955551;28;20454;-81
2023/04/23 10:03:56;;;;;;;4.53;4.33;;;;;;;;;;4945058;28;20426;-79
2023/04/23 10:06:30;;;;;;;3.93;3.73;;;;;;;;;;4950418;28;20537;-80
2023/04/23 10:08:56;;;;;;;3.87;3.50;;;;;;;;;;4946072;28;20489;-79
2023/04/23 10:11:26;;;;;;;5.00;4.70;;;;;;;;;;4949325;29;20553;-80
2023/04/23 10:13:53;;;;;;;4.60;4.30;;;;;;;;;;4931014;29;20470;-77
2023/04/23 10:16:19;;;;;;;;;;;;;;;;;;4942139;29;20283;-78
2023/04/23 10:18:47;;;;;;;5.70;5.30;;;;;;;;;;4952453;28;20445;-75
2023/04/23 10:21:15;;;;;;;3.83;3.67;;;;;;;;;;4959844;29;20195;-82
2023/04/23 10:23:42;;;;;;;4.40;4.20;;;;;;;;;;4950837;28;20454;-78
2023/04/23 10:26:08;;;;;;;4.33;4.17;;;;;;;;;;4951170;28;20488;-79
2023/04/23 10:28:35;;;;;;;4.53;4.33;;;;;;;;;;4950144;28;20446;-79
2023/04/23 10:31:02;;;;;;;4.77;4.47;;;;;;;;;;4954731;29;20434;-80
2023/04/23 10:33:30;;;;;;;4.40;4.10;;;;;;;;;;4954404;28;20454;-81
2023/04/23 10:35:56;;;;;;;4.37;4.27;;;;;;;;;;4950729;28;20544;-81
2023/04/23 10:38:23;;;;;;;4.00;3.80;;;;;;;;;;4946990;28;20505;-82
2023/04/23 10:40:50;;;;;;;3.83;3.83;;;;;;;;;;4948972;28;21136;-79
2023/04/23 10:43:16;;;;;;;3.73;3.67;;;;;;;;;;4954488;28;20808;-79
2023/04/23 10:45:43;;;;;;;4.10;4.00;;;;;;;;;;4938142;28;20478;-80
2023/04/23 10:48:09;;;;;;;4.47;4.07;;;;;;;;;;4932844;29;20541;-82
2023/04/23 10:50:36;;;;;;;3.83;3.73;;;;;;;;;;4950343;28;20692;-80
2023/04/23 10:53:02;;;;;;;5.20;5.00;;;;;;;;;;4943994;28;20442;-80
2023/04/23 10:55:29;;;;;;;8.23;7.93;;;;;;;;;;4928907;28;20501;-81
2023/04/23 10:58:00;;;;;;;5.80;5.50;;;;;;;;;;4925123;29;20451;-79
2023/04/23 11:00:27;;;;;;;4.50;4.20;;;;;;;;;;4944774;28;20462;-81
2023/04/23 11:02:53;;;;;;;5.00;4.80;;;;;;;;;;4944462;28;20195;-82
2023/04/23 11:05:21;;;;;;;4.80;4.70;;;;;;;;;;4948130;28;20624;-82
2023/04/23 11:08:06;;;;;;;5.83;5.63;;;;;;;;;;4944962;28;20441;-80
2023/04/23 11:10:34;;;;;;;5.97;5.77;;;;;;;;;;4947109;28;20426;-80
2023/04/23 11:13:20;;;;;;;5.47;5.00;;;;;;;;;;4945700;28;20950;-79
2023/04/23 11:15:46;;;;;;;5.97;5.73;;;;;;;;;;4951185;28;20469;-80
2023/04/23 11:18:14;;;;;;;5.97;5.70;;;;;;;;;;4950598;29;20533;-81
2023/04/23 11:20:40;;;;;;;7.03;6.40;;;;;;;;;;4935021;29;20456;-80
2023/04/23 11:23:06;;;;;;;7.17;6.77;;;;;;;;;;4960150;29;20533;-78
2023/04/23 11:25:32;;;;;;;4.00;3.80;;;;;;;;;;4960627;28;20458;-79
2023/04/23 11:27:58;;;;;;;5.10;4.90;;;;;;;;;;4955033;28;20469;-79
2023/04/23 11:30:25;;;;;;;4.57;4.43;;;;;;;;;;4946962;28;20537;-78
2023/04/23 11:32:55;;;;;;;6.60;6.13;;;;;;;;;;4952115;28;20768;-79
2023/04/23 11:35:22;;;;;;;5.27;4.90;;;;;;;;;;4949085;28;20478;-78
2023/04/23 11:37:48;;;;;;;6.27;5.90;;;;;;;;;;4951650;28;20445;-79
2023/04/23 11:40:18;;;;;;;5.53;5.13;;;;;;;;;;4947726;28;20449;-78
2023/04/23 11:42:48;;;;;;;5.63;5.20;;;;;;;;;;4950563;28;20446;-80
2023/04/23 11:45:20;;;;;;;5.00;4.70;;;;;;;;;;4947391;28;20454;-81
2023/04/23 11:47:47;;;;;;;5.53;5.23;;;;;;;;;;4935226;29;20442;-81
2023/04/23 11:50:20;;;;;;;4.80;4.40;;;;;;;;;;4947418;28;20460;-80
2023/04/23 11:52:46;;;;;;;4.63;4.53;;;;;;;;;;4956990;28;20565;-80
2023/04/23 11:55:13;;;;;;;4.07;3.83;;;;;;;;;;4961595;28;20850;-80
2023/04/23 11:57:51;;;;;;;5.80;5.50;;;;;;;;;;4933669;29;20472;-80
2023/04/23 12:00:24;;;;;;;5.00;4.80;;;;;;;;;;4948157;28;20442;-77
2023/04/23 12:02:53;;;;;;;5.80;5.60;;;;;;;;;;4952326;28;20841;-78
2023/04/23 12:05:20;;;;;;;4.03;3.83;;;;;;;;;;4953603;28;20759;-80
2023/04/23 12:07:50;;;;;;;7.23;6.90;;;;;;;;;;4959720;28;20537;-83
2023/04/23 12:10:17;;;;;;;5.17;4.97;;;;;;;;;;4964676;28;20445;-81
2023/04/23 12:12:43;;;;;;;6.30;6.10;;;;;;;;;;4954896;28;20442;-84
2023/04/23 12:15:09;;;;;;;3.50;3.20;;;;;;;;;;4950394;28;20469;-82
2023/04/23 12:17:35;;;;;;;4.63;4.43;;;;;;;;;;4959673;28;20577;-81
2023/04/23 12:20:05;;;;;;;4.50;4.40;;;;;;;;;;4949504;28;20533;-83
2023/04/23 12:22:31;;;;;;;4.50;4.10;;;;;;;;;;4949830;28;20508;-82
2023/04/23 12:25:02;;;;;;;4.33;4.13;;;;;;;;;;4947808;29;20517;-82
2023/04/23 12:27:32;;;;;;;6.90;6.60;;;;;;;;;;4949920;28;20501;-85
2023/04/23 12:29:59;;;;;;;5.37;5.17;;;;;;;;;;4946066;28;20602;-82
2023/04/23 12:32:25;;;;;;;3.87;3.63;;;;;;;;;;4949173;28;20838;-82
2023/04/23 12:34:52;;;;;;;4.70;4.50;;;;;;;;;;4945669;28;20521;-79
2023/04/23 12:37:18;;;;;;;6.47;4.87;;;;;;;;;;4950174;28;20444;-82
2023/04/23 12:39:44;;;;;;;3.77;3.57;;;;;;;;;;4951528;28;20446;-83
2023/04/23 12:42:11;;;;;;;3.20;2.93;;;;;;;;;;4938875;29;20484;-85
2023/04/23 12:44:38;;;;;;;3.93;3.73;;;;;;;;;;4948973;28;20511;-83
2023/04/23 12:47:07;;;;;;;4.30;4.13;;;;;;;;;;4949410;28;20462;-80
2023/04/23 12:49:35;;;;;;;4.90;4.60;;;;;;;;;;4949660;28;20888;-81
2023/04/23 12:52:01;;;;;;;2.80;2.80;;;;;;;;;;4950289;28;20854;-81
2023/04/23 12:54:31;;;;;;;4.03;3.73;;;;;;;;;;4929810;28;21279;-83
2023/04/23 12:56:58;;;;;;;5.53;4.87;;;;;;;;;;4952417;28;20518;-82
2023/04/23 12:59:24;;;;;;;4.50;4.30;;;;;;;;;;4953231;28;20434;-83
2023/04/23 13:01:50;;;;;;;3.03;3.03;;;;;;;;;;4948225;28;20465;-82
2023/04/23 13:04:17;;;;;;;2.60;2.40;;;;;;;;;;4942745;29;20482;-84
2023/04/23 13:06:45;;;;;;;3.17;2.97;;;;;;;;;;4938856;28;20533;-81
2023/04/23 13:09:11;;;;;;;4.07;3.77;;;;;;;;;;4949606;28;20210;-80
2023/04/23 13:11:38;;;;;;;3.10;2.90;;;;;;;;;;4946486;28;20792;-82
2023/04/23 13:14:04;;;;;;;3.10;3.03;;;;;;;;;;4955053;28;20511;-82
2023/04/23 13:16:30;;;;;;;2.00;1.90;;;;;;;;;;4957620;28;20472;-83
2023/04/23 13:18:56;;;;;;;2.83;1.97;;;;;;;;;;4955983;28;20202;-83
2023/04/23 13:21:24;;;;;;;4.57;2.23;;;;;;;;;;4953222;28;20466;-84
2023/04/23 13:23:50;;;;;;;3.27;3.07;;;;;;;;;;4949087;28;20450;-82
2023/04/23 13:26:17;;;;;;;3.20;3.10;;;;;;;;;;4953015;29;20461;-82
2023/04/23 13:28:43;;;;;;;4.83;4.63;;;;;;;;;;4950518;28;20442;-84
2023/04/23 13:31:10;;;;;;;4.67;3.80;;;;;;;;;;4987727;28;20469;-83
2023/04/23 13:33:37;;;;;;;2.95;2.75;;;;;;;;;;4960655;28;20422;-83
2023/04/23 13:36:03;;;;;;;3.30;3.20;;;;;;;;;;4958498;28;20242;-83
2023/04/23 13:38:30;;;;;;;2.60;2.40;;;;;;;;;;4948837;28;20472;-82
2023/04/23 13:40:56;;;;;;;1.80;1.80;;;;;;;;;;4944370;28;20421;-82
2023/04/23 13:43:22;;;;;;;3.10;2.90;;;;;;;;;;4939997;28;20281;-82
2023/04/23 13:45:48;;;;;;;1.90;1.80;;;;;;;;;;4947802;28;21143;-80
2023/04/23 13:48:14;;;;;;;12.27;11.43;;;;;;;;;;4943570;28;20193;-84
2023/04/23 13:50:41;;;;;;;2.30;2.13;;;;;;;;;;4946440;28;20493;-83
2023/04/23 13:53:08;;;;;;;3.23;3.13;;;;;;;;;;4953750;28;20195;-82
2023/04/23 13:55:36;;;;;;;4.80;4.47;;;;;;;;;;4951052;28;20480;-83
2023/04/23 13:58:03;;;;;;;2.57;2.47;;;;;;;;;;4941676;28;20440;-82
2023/04/23 14:00:29;;;;;;;2.47;2.33;;;;;;;;;;4942925;28;20540;-82
2023/04/23 14:02:56;;;;;;;3.33;3.13;;;;;;;;;;4936186;29;20418;-78
2023/04/23 14:05:22;;;;;;;2.30;2.20;;;;;;;;;;4950076;29;20723;-83
2023/04/23 14:07:48;;;;;;;2.40;2.40;;;;;;;;;;4947149;28;21042;-81
2023/04/23 14:10:14;;;;;;;3.43;3.20;;;;;;;;;;4946363;28;20679;-82
2023/04/23 14:12:40;;;;;;;2.38;2.38;;;;;;;;;;4927821;28;20505;-79
2023/04/23 14:15:07;;;;;;;4.50;4.40;;;;;;;;;;4930305;28;20233;-79
2023/04/23 14:17:33;;;;;;;4.23;3.93;;;;;;;;;;4939589;28;20446;-82
2023/04/23 14:19:59;;;;;;;2.45;2.35;;;;;;;;;;4940938;28;20432;-80
2023/04/23 14:22:25;;;;;;;2.80;2.60;;;;;;;;;;4940289;28;20410;-81
2023/04/23 14:24:56;;;;;;;2.70;2.60;;;;;;;;;;4943553;28;20532;-78